createdAt,value
2023-03-27T00:00:12.905Z,100479.78
2023-03-27T00:02:39.965Z,100482.03
2023-03-27T00:05:08.107Z,100486.84
2023-03-27T00:07:36.092Z,100483.88
2023-03-27T00:10:02.985Z,100490.25
2023-03-27T00:12:29.968Z,100495.34
2023-03-27T00:15:00.788Z,100499.00
2023-03-27T00:17:33.693Z,100499.00
2023-03-27T00:20:00.644Z,100500.44
2023-03-27T00:22:30.059Z,100504.25
2023-03-27T00:24:57.291Z,100510.34
2023-03-27T00:27:26.703Z,100514.44
2023-03-27T00:29:54.165Z,100517.97
2023-03-27T00:32:21.122Z,100512.88
2023-03-27T00:34:50.222Z,100513.16
2023-03-27T00:37:17.060Z,100519.38
2023-03-27T00:39:50.074Z,100521.09
2023-03-27T00:42:22.911Z,100519.66
2023-03-27T00:44:55.376Z,100523.91
2023-03-27T00:47:40.707Z,100518.25
2023-03-27T00:50:14.872Z,100527.44
2023-03-27T00:52:44.776Z,100530.97
2023-03-27T00:55:17.552Z,100541.56
2023-03-27T00:57:47.679Z,100541.28
2023-03-27T01:00:17.097Z,100545.53
2023-03-27T01:02:48.737Z,100552.28
2023-03-27T01:05:18.685Z,100553.03
2023-03-27T01:08:00.247Z,100553.13
2023-03-27T01:11:19.169Z,100547.03
2023-03-27T01:14:38.068Z,100549.63
2023-03-27T01:17:26.718Z,100548.06
2023-03-27T01:20:15.301Z,100553.16
2023-03-27T01:23:36.235Z,100552.16
2023-03-27T01:26:38.169Z,100544.53
2023-03-27T01:29:42.108Z,100550.50
2023-03-27T01:32:49.709Z,100563.16
2023-03-27T01:35:28.574Z,100561.81
2023-03-27T01:38:15.828Z,100561.53
2023-03-27T01:41:05.323Z,100561.81
2023-03-27T01:43:55.183Z,100573.69
2023-03-27T01:46:45.405Z,100575.09
2023-03-27T01:49:23.424Z,100568.78
2023-03-27T01:51:56.714Z,100572.72
2023-03-27T01:54:37.462Z,100572.03
2023-03-27T01:57:29.279Z,100575.09
2023-03-27T02:00:19.370Z,100575.81
2023-03-27T02:02:53.129Z,100582.31
2023-03-27T02:05:47.089Z,100585.41
2023-03-27T02:08:34.193Z,100585.84
2023-03-27T02:11:01.216Z,100591.78
2023-03-27T02:13:53.256Z,100596.50
2023-03-27T02:16:33.972Z,100597.91
2023-03-27T02:19:33.794Z,100596.31
2023-03-27T02:22:01.148Z,100607.50
2023-03-27T02:24:28.940Z,100604.88
2023-03-27T02:27:12.926Z,100604.56
2023-03-27T02:30:27.471Z,100610.63
2023-03-27T02:33:14.847Z,100612.16
2023-03-27T02:35:45.178Z,100621.41
2023-03-27T02:38:30.618Z,100623.53
2023-03-27T02:41:27.264Z,100635.69
2023-03-27T02:44:20.514Z,100632.16
2023-03-27T02:47:18.491Z,100636.22
2023-03-27T02:49:52.499Z,100640.25
2023-03-27T02:52:29.525Z,100639.81
2023-03-27T02:55:06.423Z,100650.47
2023-03-27T02:57:41.875Z,100649.59
2023-03-27T03:00:26.090Z,100651.03
2023-03-27T03:03:06.121Z,100644.44
2023-03-27T03:05:34.100Z,100652.22
2023-03-27T03:08:01.064Z,100659.03
2023-03-27T03:10:31.300Z,100662.13
2023-03-27T03:12:58.131Z,100661.91
2023-03-27T03:15:25.066Z,100664.38
2023-03-27T03:17:56.600Z,100666.81
2023-03-27T03:20:29.785Z,100668.84
2023-03-27T03:22:57.650Z,100661.94
2023-03-27T03:25:27.261Z,100667.66
2023-03-27T03:27:59.138Z,100668.13
2023-03-27T03:30:31.183Z,100672.06
2023-03-27T03:33:00.877Z,100670.28
2023-03-27T03:35:28.289Z,100678.31
2023-03-27T03:37:55.274Z,100681.81
2023-03-27T03:40:22.227Z,100683.13
2023-03-27T03:42:52.790Z,100680.56
2023-03-27T03:45:22.808Z,100691.41
2023-03-27T03:47:50.308Z,100695.19
2023-03-27T03:50:21.753Z,100701.78
2023-03-27T03:52:48.581Z,100694.09
2023-03-27T03:55:21.321Z,100702.97
2023-03-27T03:57:48.365Z,100707.59
2023-03-27T04:00:18.674Z,100713.25
2023-03-27T04:02:45.788Z,100712.75
2023-03-27T04:05:13.032Z,100718.38
2023-03-27T04:07:41.077Z,100723.38
2023-03-27T04:10:14.269Z,100728.13
2023-03-27T04:12:41.517Z,100724.56
2023-03-27T04:15:09.370Z,100719.56
2023-03-27T04:17:38.344Z,100720.47
2023-03-27T04:20:06.395Z,100722.97
2023-03-27T04:22:38.083Z,100728.94
2023-03-27T04:25:09.635Z,100731.28
2023-03-27T04:27:36.443Z,100733.47
2023-03-27T04:30:03.520Z,100741.50
2023-03-27T04:32:32.443Z,100740.16
2023-03-27T04:34:59.317Z,100743.72
2023-03-27T04:37:28.681Z,100749.53
2023-03-27T04:39:55.724Z,100746.88
2023-03-27T04:42:22.871Z,100761.25
2023-03-27T04:44:53.093Z,100758.69
2023-03-27T04:47:20.436Z,100761.72
2023-03-27T04:49:50.752Z,100761.47
2023-03-27T04:52:25.466Z,100764.16
2023-03-27T04:54:58.861Z,100768.06
2023-03-27T04:57:28.724Z,100772.94
2023-03-27T04:59:55.550Z,100771.22
2023-03-27T05:02:26.365Z,100769.41
2023-03-27T05:04:58.507Z,100767.69
2023-03-27T05:07:26.603Z,100774.63
2023-03-27T05:09:57.301Z,100771.22
2023-03-27T05:12:24.171Z,100778.28
2023-03-27T05:14:56.032Z,100780.47
2023-03-27T05:17:25.863Z,100786.81
2023-03-27T05:19:52.805Z,100795.72
2023-03-27T05:22:19.679Z,100797.75
2023-03-27T05:24:46.790Z,100801.91
2023-03-27T05:27:17.133Z,100795.81
2023-03-27T05:29:47.644Z,100805.66
2023-03-27T05:32:14.912Z,100810.19
2023-03-27T05:34:42.338Z,100804.09
2023-03-27T05:37:11.815Z,100812.50
2023-03-27T05:39:38.641Z,100809.34
2023-03-27T05:42:05.615Z,100801.91
2023-03-27T05:44:32.494Z,100814.34
2023-03-27T05:46:59.806Z,100819.44
2023-03-27T05:49:29.315Z,100814.09
2023-03-27T05:51:58.693Z,100811.88
2023-03-27T05:54:28.593Z,100815.25
2023-03-27T05:56:56.152Z,100823.09
2023-03-27T05:59:25.551Z,100825.22
2023-03-27T06:01:52.716Z,100833.34
2023-03-27T06:04:22.037Z,100830.06
2023-03-27T06:06:51.554Z,100829.56
2023-03-27T06:09:18.422Z,100833.22
2023-03-27T06:11:46.158Z,100829.44
2023-03-27T06:14:13.036Z,100832.91
2023-03-27T06:16:41.968Z,100839.56
2023-03-27T06:19:11.065Z,100839.81
2023-03-27T06:21:39.900Z,100840.69
2023-03-27T06:24:07.890Z,100840.06
2023-03-27T06:26:34.787Z,100852.81
2023-03-27T06:29:08.620Z,100844.09
2023-03-27T06:31:36.349Z,100858.09
2023-03-27T06:34:05.815Z,100858.00
2023-03-27T06:36:32.744Z,100860.63
2023-03-27T06:39:02.784Z,100856.03
2023-03-27T06:41:29.653Z,100849.59
2023-03-27T06:43:56.680Z,100855.81
2023-03-27T06:46:42.651Z,100862.34
2023-03-27T06:49:14.152Z,100866.34
2023-03-27T06:51:43.127Z,100873.81
2023-03-27T06:54:10.125Z,100881.69
2023-03-27T06:56:37.014Z,100882.25
2023-03-27T06:59:03.928Z,100883.31
2023-03-27T07:01:30.919Z,100887.97
2023-03-27T07:04:00.000Z,100890.72
2023-03-27T07:06:29.357Z,100892.81
2023-03-27T07:08:58.559Z,100897.19
2023-03-27T07:11:30.588Z,100903.09
2023-03-27T07:13:58.854Z,100908.34
2023-03-27T07:16:26.737Z,100908.56
2023-03-27T07:18:58.363Z,100916.53
2023-03-27T07:21:27.238Z,100916.50
2023-03-27T07:23:56.506Z,100920.75
2023-03-27T07:26:24.085Z,100920.41
2023-03-27T07:28:51.756Z,100924.75
2023-03-27T07:33:48.793Z,100917.25
2023-03-27T07:36:17.837Z,100914.66
2023-03-27T07:38:47.717Z,100922.44
2023-03-27T07:41:14.669Z,100923.72
2023-03-27T07:43:41.633Z,100919.59
2023-03-27T07:46:10.670Z,100931.94
2023-03-27T07:48:38.512Z,100944.88
2023-03-27T07:51:13.802Z,100945.34
2023-03-27T07:53:41.609Z,100951.59
2023-03-27T07:56:10.379Z,100969.31
2023-03-27T07:58:42.622Z,100968.75
2023-03-27T08:01:12.021Z,100963.47
2023-03-27T08:03:39.092Z,100953.13
2023-03-27T08:06:09.066Z,100958.94
2023-03-27T08:08:36.040Z,100963.22
2023-03-27T08:11:04.305Z,100962.44
2023-03-27T08:13:31.251Z,100956.19
2023-03-27T08:16:07.825Z,100950.63
2023-03-27T08:18:37.930Z,100952.38
2023-03-27T08:21:10.485Z,100957.94
2023-03-27T08:23:41.164Z,100960.25
2023-03-27T08:26:11.689Z,100960.13
2023-03-27T08:28:38.603Z,100965.41
2023-03-27T08:31:13.756Z,100968.50
2023-03-27T08:33:43.342Z,100968.31
2023-03-27T08:36:12.077Z,100962.16
2023-03-27T08:38:39.531Z,100973.09
2023-03-27T08:41:07.685Z,100960.22
2023-03-27T08:43:44.447Z,100969.09
2023-03-27T08:46:40.470Z,100962.72
2023-03-27T08:49:20.905Z,100968.25
2023-03-27T08:52:03.871Z,100973.47
2023-03-27T08:54:35.382Z,100974.56
2023-03-27T08:57:04.918Z,100962.69
2023-03-27T08:59:34.310Z,100972.78
2023-03-27T09:02:19.555Z,100969.72
2023-03-27T09:05:06.445Z,100989.84
2023-03-27T09:07:59.138Z,100976.38
2023-03-27T09:10:45.893Z,100988.84
2023-03-27T09:13:27.798Z,100993.97
2023-03-27T09:16:08.966Z,100989.97
2023-03-27T09:19:06.306Z,100992.25
2023-03-27T09:21:44.515Z,101006.03
2023-03-27T09:24:33.873Z,100995.50
2023-03-27T09:27:26.631Z,100999.78
2023-03-27T09:30:22.691Z,101006.72
2023-03-27T09:33:03.423Z,100995.31
2023-03-27T09:35:38.809Z,101006.63
2023-03-27T09:38:28.499Z,101011.78
2023-03-27T09:40:59.460Z,101005.19
2023-03-27T09:43:39.633Z,101005.31
2023-03-27T09:46:08.467Z,101003.50
2023-03-27T09:48:57.700Z,101015.03
2023-03-27T09:51:42.501Z,101021.91
2023-03-27T09:54:14.202Z,101012.69
2023-03-27T09:56:54.539Z,101012.13
2023-03-27T09:59:38.341Z,101015.13
2023-03-27T10:02:27.251Z,101007.91
2023-03-27T10:05:13.632Z,101016.50
2023-03-27T10:07:43.922Z,101013.13
2023-03-27T10:10:20.225Z,101019.38
2023-03-27T10:12:58.555Z,101019.41
2023-03-27T10:15:38.575Z,101016.13
2023-03-27T10:18:27.669Z,101006.03
2023-03-27T10:21:01.441Z,101012.09
2023-03-27T10:23:52.491Z,101017.22
2023-03-27T10:26:27.813Z,101025.22
2023-03-27T10:29:05.182Z,101028.56
2023-03-27T10:31:37.620Z,101039.00
2023-03-27T10:34:11.845Z,101042.53
2023-03-27T10:36:40.444Z,101044.81
2023-03-27T10:39:12.948Z,101031.91
2023-03-27T10:41:40.654Z,101045.03
2023-03-27T10:44:18.021Z,101041.00
2023-03-27T10:46:45.724Z,101042.66
2023-03-27T10:49:44.178Z,101038.69
2023-03-27T10:52:48.484Z,101044.06
2023-03-27T10:55:51.633Z,101043.06
2023-03-27T10:58:49.063Z,101045.50
2023-03-27T11:01:26.405Z,101051.13
2023-03-27T11:04:11.666Z,101040.34
2023-03-27T11:06:41.994Z,101055.81
2023-03-27T11:09:18.594Z,101044.94
2023-03-27T11:12:09.394Z,101046.63
2023-03-27T11:15:09.144Z,101054.28
2023-03-27T11:18:00.728Z,101053.63
2023-03-27T11:20:43.632Z,101072.06
2023-03-27T11:23:39.288Z,101066.63
2023-03-27T11:26:11.426Z,101073.91
2023-03-27T11:28:52.968Z,101101.03
2023-03-27T11:31:57.274Z,101160.25
2023-03-27T11:34:45.671Z,101198.34
2023-03-27T11:37:26.722Z,101219.16
2023-03-27T11:40:05.688Z,101209.84
2023-03-27T11:42:37.111Z,101215.50
2023-03-27T11:45:07.318Z,101211.78
2023-03-27T11:48:24.843Z,101196.47
2023-03-27T11:51:03.181Z,101176.84
2023-03-27T11:54:01.503Z,101170.22
2023-03-27T11:56:55.337Z,101160.16
2023-03-27T11:59:58.585Z,101150.44
2023-03-27T12:02:45.488Z,101161.38
2023-03-27T12:05:38.203Z,101147.88
2023-03-27T12:09:16.898Z,101148.88
2023-03-27T12:12:06.392Z,101150.53
2023-03-27T12:14:51.297Z,101146.25
2023-03-27T12:17:37.174Z,101129.59
2023-03-27T12:20:52.782Z,101150.72
2023-03-27T12:23:45.828Z,101142.91
2023-03-27T12:26:39.953Z,101141.59
2023-03-27T12:29:42.043Z,101161.78
2023-03-27T12:33:04.681Z,101174.81
2023-03-27T12:35:40.274Z,101169.44
2023-03-27T12:38:28.633Z,101159.22
2023-03-27T12:41:29.442Z,101166.44
2023-03-27T12:44:03.614Z,101162.59
2023-03-27T12:46:37.759Z,101169.56
2023-03-27T12:49:13.624Z,101167.44
2023-03-27T12:52:04.900Z,101159.19
2023-03-27T12:54:39.041Z,101163.47
2023-03-27T12:57:22.311Z,101160.34
2023-03-27T12:59:52.068Z,101154.94
2023-03-27T13:02:57.674Z,101163.25
2023-03-27T13:05:38.703Z,101157.22
2023-03-27T13:08:35.474Z,101161.28
2023-03-27T13:11:19.451Z,101148.69
2023-03-27T13:14:01.140Z,101154.94
2023-03-27T13:17:25.039Z,101154.16
2023-03-27T13:20:23.472Z,101152.44
2023-03-27T13:23:06.129Z,101146.09
2023-03-27T13:26:14.112Z,101140.31
2023-03-27T13:28:48.559Z,101129.44
2023-03-27T13:31:44.601Z,101123.16
2023-03-27T13:34:26.134Z,101121.47
2023-03-27T13:37:06.523Z,101126.06
2023-03-27T13:39:55.685Z,101122.09
2023-03-27T13:42:30.046Z,101121.34
2023-03-27T13:45:03.946Z,101124.22
2023-03-27T13:47:33.664Z,101130.25
2023-03-27T13:50:28.234Z,101127.03
2023-03-27T13:53:16.455Z,101120.34
2023-03-27T13:56:33.396Z,101117.19
2023-03-27T13:59:40.094Z,101111.63
2023-03-27T14:03:10.797Z,101114.03
2023-03-27T14:05:56.458Z,101130.63
2023-03-27T14:09:35.587Z,101175.28
2023-03-27T14:12:16.742Z,101184.19
2023-03-27T14:15:23.681Z,101178.72
2023-03-27T14:18:25.659Z,101159.06
2023-03-27T14:21:00.575Z,101149.25
2023-03-27T14:23:32.794Z,101141.16
2023-03-27T14:26:24.551Z,101136.34
2023-03-27T14:28:58.843Z,101133.72
2023-03-27T14:31:28.773Z,101140.13
2023-03-27T14:34:12.227Z,101132.09
2023-03-27T14:36:45.936Z,101130.97
2023-03-27T14:39:21.962Z,101131.78
2023-03-27T14:41:57.321Z,101141.03
2023-03-27T14:44:26.649Z,101148.03
2023-03-27T14:47:09.293Z,101135.31
2023-03-27T14:49:45.354Z,101134.75
2023-03-27T14:52:21.909Z,101135.69
2023-03-27T14:54:55.197Z,101128.34
2023-03-27T14:57:27.300Z,101137.19
2023-03-27T14:59:55.431Z,101133.72
2023-03-27T15:02:31.722Z,101140.09
2023-03-27T15:05:09.744Z,101138.09
2023-03-27T15:07:42.817Z,101136.03
2023-03-27T15:10:15.091Z,101152.28
2023-03-27T15:12:47.136Z,101152.72
2023-03-27T15:15:42.650Z,101162.06
2023-03-27T15:18:31.388Z,101155.94
2023-03-27T15:21:11.483Z,101153.44
2023-03-27T15:24:02.811Z,101168.50
2023-03-27T15:26:35.060Z,101170.72
2023-03-27T15:29:39.238Z,101172.03
2023-03-27T15:32:14.818Z,101168.16
2023-03-27T15:34:58.057Z,101167.41
2023-03-27T15:37:28.581Z,101160.19
2023-03-27T15:40:09.013Z,101160.81
2023-03-27T15:43:06.675Z,101168.47
2023-03-27T15:46:14.740Z,101158.75
2023-03-27T15:48:50.753Z,101168.47
2023-03-27T15:51:33.161Z,101189.13
2023-03-27T15:54:32.161Z,101170.97
2023-03-27T15:57:10.473Z,101172.81
2023-03-27T15:59:52.017Z,101174.31
2023-03-27T16:02:24.930Z,101171.38
2023-03-27T16:04:56.140Z,101176.56
2023-03-27T16:07:42.535Z,101178.44
2023-03-27T16:10:15.361Z,101173.63
2023-03-27T16:12:58.383Z,101184.84
2023-03-27T16:15:36.299Z,101176.06
2023-03-27T16:18:28.248Z,101184.22
2023-03-27T16:21:08.387Z,101194.09
2023-03-27T16:23:35.841Z,101194.44
2023-03-27T16:26:06.164Z,101190.84
2023-03-27T16:28:33.854Z,101198.13
2023-03-27T16:31:12.156Z,101198.72
2023-03-27T16:33:42.987Z,101199.88
2023-03-27T16:36:16.048Z,101201.44
2023-03-27T16:38:45.946Z,101219.78
2023-03-27T16:41:18.901Z,101223.91
2023-03-27T16:43:48.918Z,101221.06
2023-03-27T16:46:22.967Z,101214.66
2023-03-27T16:48:51.977Z,101207.72
2023-03-27T16:51:24.689Z,101209.25
2023-03-27T16:53:52.910Z,101216.94
2023-03-27T16:56:21.210Z,101215.94
2023-03-27T16:58:48.686Z,101214.97
2023-03-27T17:01:17.604Z,101215.38
2023-03-27T17:03:47.072Z,101213.25
2023-03-27T17:06:18.827Z,101220.38
2023-03-27T17:08:45.816Z,101224.75
2023-03-27T17:11:13.909Z,101225.72
2023-03-27T17:13:43.423Z,101212.75
2023-03-27T17:16:11.115Z,101226.34
2023-03-27T17:18:42.697Z,101221.34
2023-03-27T17:21:09.610Z,101205.19
2023-03-27T17:23:36.682Z,101227.56
2023-03-27T17:26:05.418Z,101237.22
2023-03-27T17:28:32.409Z,101238.97
2023-03-27T17:31:04.589Z,101245.06
2023-03-27T17:33:33.196Z,101255.97
2023-03-27T17:36:00.400Z,101248.28
2023-03-27T17:38:29.830Z,101250.72
2023-03-27T17:41:01.412Z,101250.44
2023-03-27T17:43:28.230Z,101260.81
2023-03-27T17:45:57.385Z,101252.97
2023-03-27T17:48:28.957Z,101258.03
2023-03-27T17:51:08.893Z,101263.69
2023-03-27T17:53:38.653Z,101287.34
2023-03-27T17:56:07.371Z,101272.94
2023-03-27T17:58:34.586Z,101286.34
2023-03-27T18:01:12.453Z,101298.56
2023-03-27T18:03:43.899Z,101297.47
2023-03-27T18:06:14.465Z,101297.66
2023-03-27T18:08:41.397Z,101304.31
2023-03-27T18:11:11.136Z,101308.53
2023-03-27T18:13:41.930Z,101309.44
2023-03-27T18:16:10.736Z,101318.75
2023-03-27T18:18:39.041Z,101310.56
2023-03-27T18:21:06.798Z,101299.69
2023-03-27T18:23:35.110Z,101298.53
2023-03-27T18:26:07.069Z,101301.06
2023-03-27T18:28:35.777Z,101296.84
2023-03-27T18:31:08.484Z,101300.63
2023-03-27T18:33:38.315Z,101303.13
2023-03-27T18:36:12.044Z,101304.28
2023-03-27T18:38:41.054Z,101303.69
2023-03-27T18:41:09.356Z,101304.16
2023-03-27T18:43:36.530Z,101317.53
2023-03-27T18:46:06.782Z,101320.63
2023-03-27T18:48:36.521Z,101342.69
2023-03-27T18:51:07.359Z,101348.56
2023-03-27T18:53:36.717Z,101346.78
2023-03-27T18:56:03.962Z,101341.88
2023-03-27T18:58:31.279Z,101323.38
2023-03-27T19:01:00.774Z,101327.13
2023-03-27T19:03:34.806Z,101312.56
2023-03-27T19:06:06.283Z,101307.53
2023-03-27T19:08:34.332Z,101323.19
2023-03-27T19:11:06.521Z,101338.53
2023-03-27T19:13:35.766Z,101350.84
2023-03-27T19:16:02.659Z,101354.69
2023-03-27T19:18:47.189Z,101346.25
2023-03-27T19:21:17.727Z,101333.47
2023-03-27T19:23:50.268Z,101332.72
2023-03-27T19:26:19.267Z,101340.34
2023-03-27T19:28:48.796Z,101339.13
2023-03-27T19:31:16.945Z,101324.69
2023-03-27T19:33:46.402Z,101325.88
2023-03-27T19:36:13.527Z,101326.41
2023-03-27T19:38:44.334Z,101328.22
2023-03-27T19:41:11.866Z,101332.25
2023-03-27T19:43:43.770Z,101331.47
2023-03-27T19:46:16.430Z,101328.38
2023-03-27T19:48:49.915Z,101319.25
2023-03-27T19:51:19.826Z,101321.91
2023-03-27T19:53:49.144Z,101328.66
2023-03-27T19:56:16.152Z,101334.28
2023-03-27T19:58:43.034Z,101330.25
2023-03-27T20:01:10.163Z,101330.50
2023-03-27T20:03:38.358Z,101326.97
2023-03-27T20:06:13.216Z,101324.75
2023-03-27T20:08:42.108Z,101331.06
2023-03-27T20:11:09.261Z,101323.41
2023-03-27T20:13:48.923Z,101316.03
2023-03-27T20:16:24.160Z,101319.13
2023-03-27T20:18:55.370Z,101314.25
2023-03-27T20:21:27.324Z,101319.94
2023-03-27T20:23:56.536Z,101314.72
2023-03-27T20:26:24.223Z,101318.28
2023-03-27T20:28:52.126Z,101315.25
2023-03-27T20:31:24.856Z,101316.91
2023-03-27T20:33:53.218Z,101324.94
2023-03-27T20:36:24.792Z,101310.75
2023-03-27T20:38:52.770Z,101309.03
2023-03-27T20:41:21.980Z,101307.41
2023-03-27T20:43:50.921Z,101309.44
2023-03-27T20:46:17.996Z,101312.69
2023-03-27T20:48:54.097Z,101305.47
2023-03-27T20:51:24.438Z,101307.41
2023-03-27T20:53:58.371Z,101314.28
2023-03-27T20:56:27.927Z,101327.31
2023-03-27T20:58:57.228Z,101353.50
2023-03-27T21:01:27.253Z,101359.84
2023-03-27T21:03:58.331Z,101362.53
2023-03-27T21:06:25.838Z,101365.88
2023-03-27T21:08:52.764Z,101357.94
2023-03-27T21:11:22.593Z,101363.78
2023-03-27T21:13:51.582Z,101355.31
2023-03-27T21:16:20.907Z,101368.78
2023-03-27T21:18:47.803Z,101364.13
2023-03-27T21:21:14.665Z,101368.78
2023-03-27T21:23:43.517Z,101364.41
2023-03-27T21:26:12.914Z,101366.50
2023-03-27T21:28:39.762Z,101374.09
2023-03-27T21:31:10.766Z,101370.59
2023-03-27T21:33:40.123Z,101361.94
2023-03-27T21:36:07.858Z,101365.53
2023-03-27T21:38:34.781Z,101356.66
2023-03-27T21:41:05.730Z,101363.28
2023-03-27T21:43:37.159Z,101376.06
2023-03-27T21:46:04.427Z,101389.28
2023-03-27T21:48:33.770Z,101399.78
2023-03-27T21:51:06.091Z,101395.50
2023-03-27T21:53:37.710Z,101404.59
2023-03-27T21:56:05.058Z,101391.13
2023-03-27T21:58:34.215Z,101373.78
2023-03-27T22:01:03.634Z,101380.28
2023-03-27T22:03:35.247Z,101380.19
2023-03-27T22:06:13.050Z,101385.66
2023-03-27T22:08:42.372Z,101375.28
2023-03-27T22:11:11.484Z,101375.78
2023-03-27T22:13:39.316Z,101388.94
2023-03-27T22:16:13.711Z,101397.28
2023-03-27T22:18:41.796Z,101389.50
2023-03-27T22:21:24.244Z,101391.91
2023-03-27T22:23:52.580Z,101386.03
2023-03-27T22:26:22.948Z,101383.00
2023-03-27T22:28:52.491Z,101387.16
2023-03-27T22:31:23.419Z,101378.09
2023-03-27T22:33:51.087Z,101377.34
2023-03-27T22:36:19.163Z,101378.91
2023-03-27T22:38:46.494Z,101370.59
2023-03-27T22:41:16.903Z,101375.00
2023-03-27T22:43:49.255Z,101378.56
2023-03-27T22:46:20.720Z,101399.03
2023-03-27T22:48:47.986Z,101385.28
2023-03-27T22:51:17.006Z,101389.41
2023-03-27T22:53:43.902Z,101403.50
2023-03-27T22:56:13.017Z,101431.31
2023-03-27T22:58:39.859Z,101417.81
2023-03-27T23:01:07.114Z,101450.41
2023-03-27T23:03:37.239Z,101449.59
2023-03-27T23:06:07.474Z,101446.16
2023-03-27T23:08:34.388Z,101445.00
2023-03-27T23:11:06.503Z,101440.47
2023-03-27T23:13:34.889Z,101439.75
2023-03-27T23:16:02.225Z,101446.38
2023-03-27T23:18:31.840Z,101452.59
2023-03-27T23:21:04.783Z,101456.16
2023-03-27T23:23:36.844Z,101457.66
2023-03-27T23:26:10.017Z,101466.00
2023-03-27T23:28:40.914Z,101462.50
2023-03-27T23:31:14.634Z,101461.00
2023-03-27T23:33:44.845Z,101460.81
2023-03-27T23:36:24.263Z,101469.81
2023-03-27T23:38:53.906Z,101469.03
2023-03-27T23:41:21.398Z,101478.28
2023-03-27T23:43:48.931Z,101484.44
2023-03-27T23:46:16.652Z,101492.75
2023-03-27T23:48:44.531Z,101490.16
2023-03-27T23:51:13.882Z,101494.78
2023-03-27T23:53:46.309Z,101501.13
2023-03-27T23:56:13.159Z,101502.84
2023-03-27T23:58:40.175Z,101502.31
